Airfield :
LOGIN :

Register | Disclaimer

   EN    FR    IT 

 










Legend :    VFR   Marginal VFR   IFR   Intensive IFR   Very Intensive IFR
Visi :
Ceiling :
>= 8 km
>= 3000ft
5 to 8 km
1000 to 3000 ft
1500m to 5 km
500 to 1000 ft
800 to 1500m
200 to 500 ft
< 800m
< 200 ft
Symbols :   Thunderstorms  Fog  Heavy snow  Heavy precipitations  Wind > 20 kt
SIGMETs :     Misc.  Thunderstorms  Icing  Turbulence  Mountain Waves  Volcanic Ashes







- Airport Elevation : 1367 ft
- IATA code : FDH


EDNY - Friedrichshafen

CURRENT METAR :
  • 170850Z 03009KT 9999 SCT030 21/14 Q1019

EXPIRED METARs :
  • 170820Z 06008KT 360V080 9999 SCT027 20/14 Q1019
  • 170750Z 01007KT 9999 SCT022 19/14 Q1020
  • 170720Z 02005KT 350V080 9999 SCT021 18/14 Q1020
  • 170650Z 02006KT 9999 SCT018 16/13 Q1020
  • 170620Z 02007KT 9999 FEW018 16/13 Q1020

TAF TAF EDNY
Valid from the 17 at 06:00 until the 18 at 06:00 UTC


170500Z 1706/1806 03005KT CAVOK
BECMG 1708/1710 03010KT
BECMG 1717/1719 03005KT
No reported NOTAMs for that airfield.



MET'MAP, your aeronautical weather chart ! - Copyright ORBIFLY December 2007 - Disclaimer

ORBIFLY MET'MAP TEAM :

Programming & Development : Alexandra Zaïnal
Concept & Development : Baudouin d'Aumeries
Co-Development & Prog : Marc-Olivier Méhu
Technical & hardware support : Manuel Goepfert

Contact : metmap@orbifly.com




SOURCES & CREDITS :

   NOAA